Time;durP1;ratioP1;P1;durP2;ratioP2;P2;SDS_P1;SDS_P2;PMS_P1;PMS_P2;Temp;Humidity;BMP_temperature;BMP_pressure;BME280_temperature;BME280_humidity;BME280_pressure;Samples;Min_cycle;Max_cycle;Signal;HPM_P1;HPM_P2
2022/10/08 00:00:55;;;;;;;12.35;3.15;;;13.40;99.90;;;;;;4173211;28;20131;-69
2022/10/08 00:02:56;;;;;;;7.60;2.90;;;13.40;99.90;;;;;;4169434;28;20492;-69
2022/10/08 00:04:57;;;;;;;7.47;2.95;;;13.40;99.90;;;;;;4172787;28;20029;-69
2022/10/08 00:06:57;;;;;;;10.88;2.90;;;13.30;99.90;;;;;;4175390;28;20025;-69
2022/10/08 00:09:01;;;;;;;7.72;2.70;;;13.30;99.90;;;;;;4168556;28;23717;-69
2022/10/08 00:11:06;;;;;;;10.63;2.70;;;13.30;99.90;;;;;;4164575;28;20049;-69
2022/10/08 00:13:07;;;;;;;6.75;2.50;;;13.30;99.90;;;;;;4168120;28;20036;-69
2022/10/08 00:15:08;;;;;;;18.58;3.42;;;13.30;99.90;;;;;;4163741;28;20112;-71
2022/10/08 00:17:09;;;;;;;7.57;2.78;;;13.30;99.90;;;;;;4167017;28;20030;-66
2022/10/08 00:19:12;;;;;;;6.60;2.65;;;13.30;99.90;;;;;;4171111;28;20064;-68
2022/10/08 00:21:16;;;;;;;6.45;2.80;;;13.30;99.90;;;;;;4169490;28;20393;-68
2022/10/08 00:23:16;;;;;;;9.15;3.00;;;13.20;99.90;;;;;;4175607;28;20142;-69
2022/10/08 00:25:17;;;;;;;10.68;3.10;;;13.20;99.90;;;;;;4167379;28;20408;-69
2022/10/08 00:27:22;;;;;;;8.65;3.05;;;13.20;99.90;;;;;;4169171;28;20036;-69
2022/10/08 00:29:23;;;;;;;8.32;2.80;;;13.20;99.90;;;;;;4165482;28;20029;-69
2022/10/08 00:31:27;;;;;;;10.75;2.92;;;13.20;99.90;;;;;;4152235;28;20485;-69
2022/10/08 00:33:27;;;;;;;8.60;3.05;;;13.20;99.90;;;;;;4168646;28;20061;-69
2022/10/08 00:35:28;;;;;;;6.75;2.85;;;13.20;99.90;;;;;;4170523;28;20044;-69
2022/10/08 00:37:28;;;;;;;5.85;2.67;;;13.20;99.90;;;;;;4170965;28;20057;-68
2022/10/08 00:39:29;;;;;;;5.93;2.75;;;13.20;99.90;;;;;;4171752;28;20041;-68
2022/10/08 00:41:33;;;;;;;8.80;2.65;;;13.20;99.90;;;;;;4164153;28;20053;-69
2022/10/08 00:43:45;;;;;;;7.50;3.13;;;13.20;99.90;;;;;;4170040;28;20389;-68
2022/10/08 00:45:46;;;;;;;7.03;2.83;;;13.20;99.90;;;;;;4171039;28;20055;-66
2022/10/08 00:47:48;;;;;;;7.60;2.83;;;13.20;99.90;;;;;;4176643;28;20476;-68
2022/10/08 00:49:52;;;;;;;8.13;3.08;;;13.20;99.90;;;;;;4168066;28;20504;-68
2022/10/08 00:51:55;;;;;;;10.13;2.60;;;13.20;99.90;;;;;;4171142;28;20063;-68
2022/10/08 00:53:55;;;;;;;;;;;13.20;99.90;;;;;;4169675;28;20116;-68
2022/10/08 00:55:56;;;;;;;7.60;2.58;;;13.20;99.90;;;;;;4168214;28;19963;-68
2022/10/08 00:58:01;;;;;;;7.18;2.72;;;13.20;99.90;;;;;;4162597;28;20561;-68
2022/10/08 01:00:12;;;;;;;9.02;2.80;;;13.20;99.90;;;;;;4168347;28;20102;-69
2022/10/08 01:02:12;;;;;;;7.53;2.78;;;13.20;99.90;;;;;;4170767;28;20116;-67
2022/10/08 01:04:14;;;;;;;8.55;2.85;;;13.20;99.90;;;;;;4171720;28;20029;-67
2022/10/08 01:06:25;;;;;;;7.88;2.85;;;13.20;99.90;;;;;;4168456;28;20396;-68
2022/10/08 01:09:06;;;;;;;7.15;2.47;;;13.20;99.90;;;;;;4167343;28;20037;-68
2022/10/08 01:11:16;;;;;;;6.15;2.60;;;13.20;99.90;;;;;;4143625;28;20065;-68
2022/10/08 01:13:48;;;;;;;7.85;2.55;;;13.20;99.90;;;;;;4150663;28;20042;-67
2022/10/08 01:15:56;;;;;;;5.88;2.55;;;13.20;99.90;;;;;;4160727;28;20037;-68
2022/10/08 01:18:02;;;;;;;5.72;2.03;;;13.20;99.90;;;;;;4170395;28;20388;-69
2022/10/08 01:20:33;;;;;;;5.55;2.38;;;13.20;99.90;;;;;;4167376;28;20398;-69
2022/10/08 01:23:02;;;;;;;8.73;3.10;;;13.30;99.90;;;;;;4164920;28;20048;-68
2022/10/08 01:25:33;;;;;;;12.60;3.10;;;13.30;99.90;;;;;;4169747;28;20042;-69
2022/10/08 01:27:40;;;;;;;7.97;2.50;;;13.30;99.90;;;;;;4169357;28;20029;-68
2022/10/08 01:29:45;;;;;;;9.25;2.67;;;13.30;99.90;;;;;;4168984;28;20082;-69
2022/10/08 01:31:57;;;;;;;10.77;2.90;;;13.30;99.90;;;;;;4168619;28;20037;-68
2022/10/08 01:34:07;;;;;;;11.65;3.67;;;13.30;99.90;;;;;;4167371;28;20102;-68
2022/10/08 01:36:10;;;;;;;6.60;2.80;;;13.30;99.90;;;;;;4168414;28;20487;-68
2022/10/08 01:38:15;;;;;;;7.03;2.88;;;13.30;99.90;;;;;;4168133;28;20033;-68
2022/10/08 01:40:19;;;;;;;8.07;2.75;;;13.30;99.90;;;;;;4169896;28;20085;-68
2022/10/08 01:42:23;;;;;;;10.48;3.15;;;13.30;99.90;;;;;;4167092;28;20046;-68
2022/10/08 01:44:40;;;;;;;9.32;2.80;;;13.30;99.90;;;;;;4166635;28;20033;-68
2022/10/08 01:46:45;;;;;;;8.38;2.95;;;13.20;99.90;;;;;;4172174;28;20045;-69
2022/10/08 01:48:48;;;;;;;9.77;2.80;;;13.30;99.90;;;;;;4172964;28;20032;-68
2022/10/08 01:51:01;;;;;;;16.58;3.05;;;13.30;99.90;;;;;;4165141;28;20048;-68
2022/10/08 01:53:03;;;;;;;;;;;13.30;99.90;;;;;;4170195;28;20037;-68
2022/10/08 01:55:11;;;;;;;10.02;2.75;;;13.30;99.90;;;;;;4166926;28;19957;-68
2022/10/08 01:57:12;;;;;;;6.32;2.33;;;13.30;99.90;;;;;;4168823;28;20033;-67
2022/10/08 01:59:21;;;;;;;7.68;3.05;;;13.30;99.90;;;;;;4167525;28;20047;-67
2022/10/08 02:01:33;;;;;;;7.07;2.47;;;13.30;99.90;;;;;;4168168;28;20056;-68
2022/10/08 02:03:34;;;;;;;8.05;2.47;;;13.30;99.90;;;;;;4174646;28;20032;-68
2022/10/08 02:05:39;;;;;;;11.75;3.40;;;13.40;99.90;;;;;;4166326;28;20029;-68
2022/10/08 02:07:41;;;;;;;8.02;2.72;;;13.40;99.90;;;;;;4171718;28;20047;-68
2022/10/08 02:09:46;;;;;;;7.07;2.47;;;13.40;99.90;;;;;;4167661;28;20024;-68
2022/10/08 02:11:46;;;;;;;8.15;2.58;;;13.40;99.90;;;;;;4164264;28;20029;-68
2022/10/08 02:13:47;;;;;;;8.57;2.40;;;13.40;99.90;;;;;;4166710;28;20156;-69
2022/10/08 02:16:02;;;;;;;5.03;1.90;;;13.40;99.90;;;;;;4173543;28;20029;-67
2022/10/08 02:18:17;;;;;;;10.15;2.30;;;13.50;99.90;;;;;;4168905;28;20362;-68
2022/10/08 02:20:29;;;;;;;8.13;2.40;;;13.50;99.90;;;;;;4164184;28;20128;-66
2022/10/08 02:22:57;;;;;;;9.73;2.85;;;13.60;99.90;;;;;;4171552;28;20042;-68
2022/10/08 02:25:24;;;;;;;12.65;2.80;;;13.50;99.90;;;;;;4168165;28;20048;-69
2022/10/08 02:27:32;;;;;;;10.38;2.38;;;13.50;99.90;;;;;;4146326;28;20038;-67
2022/10/08 02:30:08;;;;;;;7.15;2.47;;;13.50;99.90;;;;;;4152214;28;20045;-69
2022/10/08 02:32:18;;;;;;;9.45;2.75;;;13.50;99.90;;;;;;4151467;28;20469;-69
2022/10/08 02:34:34;;;;;;;11.43;2.83;;;13.50;99.90;;;;;;4151054;28;20029;-68
2022/10/08 02:36:39;;;;;;;7.90;2.50;;;13.50;99.90;;;;;;4149285;28;20355;-69
2022/10/08 02:38:51;;;;;;;11.95;2.83;;;13.60;99.90;;;;;;4152173;28;20389;-69
2022/10/08 02:40:57;;;;;;;9.15;2.60;;;13.60;99.90;;;;;;4154310;28;20394;-69
2022/10/08 02:43:03;;;;;;;11.10;2.80;;;13.60;99.90;;;;;;4152127;28;20045;-69
2022/10/08 02:45:19;;;;;;;9.65;3.17;;;13.60;99.90;;;;;;4149244;28;20030;-69
2022/10/08 02:47:24;;;;;;;8.75;2.55;;;13.50;99.90;;;;;;4168122;28;20036;-68
2022/10/08 02:49:30;;;;;;;7.90;2.35;;;13.50;99.90;;;;;;4166982;28;20029;-69
2022/10/08 02:51:35;;;;;;;7.63;2.28;;;13.50;99.90;;;;;;4160365;28;20443;-71
2022/10/08 02:53:38;;;;;;;9.32;2.72;;;13.50;99.90;;;;;;4175630;28;20472;-70
2022/10/08 02:55:59;;;;;;;7.07;2.45;;;13.50;99.90;;;;;;4148136;28;20045;-70
2022/10/08 02:58:05;;;;;;;11.85;2.97;;;13.50;99.90;;;;;;4167068;28;20025;-70
2022/10/08 03:00:06;;;;;;;14.70;3.75;;;13.50;99.90;;;;;;4167324;28;20040;-70
2022/10/08 03:02:10;;;;;;;7.55;2.70;;;13.40;99.90;;;;;;4167600;28;20543;-70
2022/10/08 03:04:31;;;;;;;12.05;3.28;;;13.40;99.90;;;;;;4174513;28;20029;-70
2022/10/08 03:06:33;;;;;;;8.50;3.05;;;13.40;99.90;;;;;;4146524;28;20556;-72
2022/10/08 03:08:39;;;;;;;11.65;3.08;;;13.40;99.90;;;;;;4166486;28;20094;-71
2022/10/08 03:10:42;;;;;;;12.55;3.00;;;13.40;99.90;;;;;;4166582;28;20037;-71
2022/10/08 03:12:43;;;;;;;8.23;2.72;;;13.40;99.90;;;;;;4150147;28;20485;-70
2022/10/08 03:14:48;;;;;;;7.40;3.00;;;13.40;99.90;;;;;;4168580;28;20036;-71
2022/10/08 03:16:48;;;;;;;8.98;3.00;;;13.30;99.90;;;;;;4164961;28;20459;-71
2022/10/08 03:18:51;;;;;;;9.98;2.50;;;13.40;99.90;;;;;;4164724;28;20041;-70
2022/10/08 03:20:53;;;;;;;5.00;2.63;;;13.40;99.90;;;;;;4163458;28;20050;-70
2022/10/08 03:22:56;;;;;;;7.05;2.95;;;13.40;99.90;;;;;;4170086;28;20045;-71
2022/10/08 03:24:57;;;;;;;10.07;2.58;;;13.50;99.90;;;;;;4174343;28;20036;-71
2022/10/08 03:26:58;;;;;;;11.43;3.28;;;13.50;99.90;;;;;;4174736;28;20401;-73
2022/10/08 03:28:59;;;;;;;9.90;3.28;;;13.50;99.90;;;;;;4169294;28;20038;-71
2022/10/08 03:31:04;;;;;;;10.65;2.80;;;13.40;99.90;;;;;;4173057;28;20381;-71
2022/10/08 03:33:05;;;;;;;8.93;2.55;;;13.40;99.90;;;;;;4176200;28;20037;-72
2022/10/08 03:35:05;;;;;;;8.90;3.10;;;13.30;99.90;;;;;;4173840;28;20357;-71
2022/10/08 03:37:06;;;;;;;12.48;3.60;;;13.40;99.90;;;;;;4172650;28;20379;-72
2022/10/08 03:39:09;;;;;;;9.13;2.83;;;13.40;99.90;;;;;;4167509;28;20061;-72
2022/10/08 03:41:10;;;;;;;7.50;3.00;;;13.40;99.90;;;;;;4167565;28;20025;-72
2022/10/08 03:43:11;;;;;;;9.15;3.17;;;13.40;99.90;;;;;;4174064;28;20115;-72
2022/10/08 03:45:12;;;;;;;9.30;2.50;;;13.40;99.90;;;;;;4165968;28;20025;-72
2022/10/08 03:47:12;;;;;;;9.85;2.70;;;13.40;99.90;;;;;;4168169;28;20064;-71
2022/10/08 03:49:13;;;;;;;7.75;2.60;;;13.40;99.90;;;;;;4162760;28;20041;-71
2022/10/08 03:51:14;;;;;;;5.90;2.20;;;13.40;99.90;;;;;;4149654;28;20037;-72
2022/10/08 03:53:14;;;;;;;10.48;2.58;;;13.40;99.90;;;;;;4167348;28;20037;-71
2022/10/08 03:55:15;;;;;;;6.63;2.42;;;13.40;99.90;;;;;;4163886;28;20034;-72
2022/10/08 03:57:15;;;;;;;5.95;2.53;;;13.30;99.90;;;;;;4169396;28;20036;-70
2022/10/08 03:59:16;;;;;;;9.82;3.22;;;13.30;99.90;;;;;;4164627;28;20069;-70
2022/10/08 04:01:17;;;;;;;8.35;2.58;;;13.30;99.90;;;;;;4165957;28;20033;-71
2022/10/08 04:03:17;;;;;;;6.80;2.40;;;13.30;99.90;;;;;;4171018;28;20591;-71
2022/10/08 04:05:18;;;;;;;6.32;2.20;;;13.30;99.90;;;;;;4165869;28;20072;-73
2022/10/08 04:07:18;;;;;;;8.93;2.90;;;13.30;99.90;;;;;;4167088;28;20030;-70
2022/10/08 04:09:19;;;;;;;6.40;2.42;;;13.30;99.90;;;;;;4167834;28;20137;-71
2022/10/08 04:11:19;;;;;;;5.28;2.03;;;13.30;99.90;;;;;;4155065;28;20370;-69
2022/10/08 04:13:21;;;;;;;6.65;2.78;;;13.30;99.90;;;;;;4149499;28;20128;-69
2022/10/08 04:15:21;;;;;;;8.52;2.65;;;13.30;99.90;;;;;;4155660;28;20129;-71
2022/10/08 04:17:22;;;;;;;6.47;2.13;;;13.30;99.90;;;;;;4152313;28;20088;-71
2022/10/08 04:19:22;;;;;;;4.97;2.15;;;13.30;99.90;;;;;;4149767;28;20037;-71
2022/10/08 04:21:23;;;;;;;8.00;2.80;;;13.30;99.90;;;;;;4150895;28;20025;-71
2022/10/08 04:23:24;;;;;;;9.80;3.10;;;13.30;99.90;;;;;;4150454;28;20437;-71
2022/10/08 04:25:24;;;;;;;7.68;2.90;;;13.30;99.90;;;;;;4149400;28;20095;-71
2022/10/08 04:27:25;;;;;;;9.57;2.45;;;13.40;99.90;;;;;;4151594;28;20087;-71
2022/10/08 04:29:25;;;;;;;5.95;2.42;;;13.40;99.90;;;;;;4149466;28;20394;-71
2022/10/08 04:31:26;;;;;;;8.52;2.75;;;13.30;99.90;;;;;;4149113;28;20042;-71
2022/10/08 04:33:29;;;;;;;5.82;2.38;;;13.30;99.90;;;;;;4149345;28;20057;-71
2022/10/08 04:35:29;;;;;;;8.60;2.97;;;13.40;99.90;;;;;;4157523;28;20036;-72
2022/10/08 04:37:30;;;;;;;6.97;2.63;;;13.30;99.90;;;;;;4161719;28;20037;-71
2022/10/08 04:39:30;;;;;;;7.85;2.42;;;13.40;99.90;;;;;;4154971;28;20571;-71
2022/10/08 04:41:31;;;;;;;6.78;2.17;;;13.40;99.90;;;;;;4167520;28;20401;-71
2022/10/08 04:43:32;;;;;;;5.63;2.47;;;13.40;99.90;;;;;;4157366;28;20905;-71
2022/10/08 04:45:33;;;;;;;5.28;2.00;;;13.40;99.90;;;;;;4164481;28;20033;-71
2022/10/08 04:47:34;;;;;;;7.35;2.40;;;13.40;99.90;;;;;;4163414;28;20033;-71
2022/10/08 04:49:34;;;;;;;8.60;2.33;;;13.40;99.90;;;;;;4163138;28;20409;-71
2022/10/08 04:51:35;;;;;;;6.05;2.22;;;13.40;99.90;;;;;;4162434;28;20118;-72
2022/10/08 04:53:35;;;;;;;5.30;2.40;;;13.40;99.90;;;;;;4169076;28;20392;-71
2022/10/08 04:55:36;;;;;;;4.10;1.85;;;13.40;99.90;;;;;;4183607;28;20091;-71
2022/10/08 04:57:36;;;;;;;6.70;1.92;;;13.40;99.90;;;;;;4186740;28;20428;-71
2022/10/08 04:59:37;;;;;;;4.35;1.88;;;13.40;99.90;;;;;;4182037;28;20048;-72
2022/10/08 05:01:38;;;;;;;5.68;2.00;;;13.40;99.90;;;;;;4170468;28;20029;-73
2022/10/08 05:03:42;;;;;;;5.75;2.15;;;13.40;99.90;;;;;;4173062;28;20041;-72
2022/10/08 05:05:44;;;;;;;5.85;2.17;;;13.40;99.90;;;;;;4154873;28;20041;-72
2022/10/08 05:07:45;;;;;;;5.00;1.87;;;13.40;99.90;;;;;;4176848;28;20654;-72
2022/10/08 05:09:45;;;;;;;4.75;2.10;;;13.40;99.90;;;;;;4178162;28;20025;-72
2022/10/08 05:11:46;;;;;;;7.38;2.25;;;13.40;99.90;;;;;;4171720;28;20049;-72
2022/10/08 05:13:51;;;;;;;6.07;2.38;;;13.50;99.90;;;;;;4170883;28;20025;-72
2022/10/08 05:15:52;;;;;;;7.65;2.50;;;13.40;99.90;;;;;;4155553;28;20481;-71
2022/10/08 05:17:53;;;;;;;7.32;2.00;;;13.40;99.90;;;;;;4163419;28;20117;-71
2022/10/08 05:19:53;;;;;;;7.82;2.60;;;13.40;99.90;;;;;;4165596;28;20042;-72
2022/10/08 05:21:54;;;;;;;5.75;2.03;;;13.40;99.90;;;;;;4164590;28;20033;-72
2022/10/08 05:24:00;;;;;;;5.43;2.00;;;13.40;99.90;;;;;;4167387;28;20025;-72
2022/10/08 05:26:09;;;;;;;6.43;2.05;;;13.40;99.90;;;;;;4164002;28;20031;-72
2022/10/08 05:28:09;;;;;;;7.60;2.15;;;13.40;99.90;;;;;;4165049;28;20053;-73
2022/10/08 05:30:10;;;;;;;7.72;2.30;;;13.40;99.90;;;;;;4166969;28;20033;-71
2022/10/08 05:32:11;;;;;;;5.13;1.50;;;13.40;99.90;;;;;;4164431;28;20045;-71
2022/10/08 05:34:13;;;;;;;5.80;1.92;;;13.40;99.90;;;;;;4165277;28;20041;-72
2022/10/08 05:36:19;;;;;;;4.70;2.00;;;13.40;99.90;;;;;;4160246;28;20034;-72
2022/10/08 05:38:19;;;;;;;7.50;2.05;;;13.40;99.90;;;;;;4165006;28;20393;-72
2022/10/08 05:40:20;;;;;;;3.30;1.48;;;13.50;99.90;;;;;;4167160;28;20045;-71
2022/10/08 05:42:21;;;;;;;4.53;1.48;;;13.50;99.90;;;;;;4162249;28;20021;-73
2022/10/08 05:44:22;;;;;;;3.85;1.52;;;13.50;99.90;;;;;;4167246;28;20034;-71
2022/10/08 05:46:24;;;;;;;5.75;1.80;;;13.50;99.90;;;;;;4163162;28;20392;-72
2022/10/08 05:48:24;;;;;;;5.95;1.70;;;13.50;99.90;;;;;;4167698;28;20028;-72
2022/10/08 05:50:25;;;;;;;4.57;1.50;;;13.50;99.90;;;;;;4155203;28;20037;-73
2022/10/08 05:52:26;;;;;;;4.82;1.63;;;13.50;99.90;;;;;;4150364;28;20038;-72
2022/10/08 05:54:26;;;;;;;3.92;1.67;;;13.50;99.90;;;;;;4153941;28;20022;-72
2022/10/08 05:56:28;;;;;;;4.10;1.90;;;13.50;99.90;;;;;;4145593;28;20102;-72
2022/10/08 05:58:29;;;;;;;4.28;1.65;;;13.40;99.90;;;;;;4159702;28;20029;-72
2022/10/08 06:00:29;;;;;;;5.68;1.60;;;13.40;99.90;;;;;;4163751;28;20045;-72
2022/10/08 06:02:30;;;;;;;8.90;1.92;;;13.40;99.90;;;;;;4169266;28;20402;-72
2022/10/08 06:04:30;;;;;;;7.25;2.00;;;13.30;99.90;;;;;;4170710;28;20033;-72
2022/10/08 06:06:33;;;;;;;6.55;2.08;;;13.30;99.90;;;;;;4161487;28;20037;-72
2022/10/08 06:08:34;;;;;;;6.55;1.95;;;13.30;99.90;;;;;;4167967;28;20032;-73
2022/10/08 06:10:35;;;;;;;4.80;1.83;;;13.30;99.90;;;;;;4166482;28;20043;-74
2022/10/08 06:12:35;;;;;;;6.65;2.03;;;13.30;99.90;;;;;;4167824;28;20120;-72
2022/10/08 06:14:36;;;;;;;4.85;1.85;;;13.20;99.90;;;;;;4167257;28;20026;-72
2022/10/08 06:16:37;;;;;;;7.55;2.30;;;13.20;99.90;;;;;;4162515;28;20086;-72
2022/10/08 06:18:40;;;;;;;6.60;3.13;;;13.20;99.90;;;;;;4170693;28;20047;-73
2022/10/08 06:20:40;;;;;;;5.03;2.50;;;13.10;99.90;;;;;;4164863;28;20044;-72
2022/10/08 06:22:41;;;;;;;6.28;2.65;;;13.10;99.90;;;;;;4164088;28;20554;-73
2022/10/08 06:24:41;;;;;;;7.07;3.00;;;13.20;99.90;;;;;;4155330;28;20376;-73
2022/10/08 06:26:43;;;;;;;6.88;3.42;;;13.20;99.90;;;;;;4149672;28;20381;-72
2022/10/08 06:28:44;;;;;;;8.63;3.90;;;13.10;99.90;;;;;;4147192;28;20042;-78
2022/10/08 06:30:45;;;;;;;6.65;3.08;;;13.10;99.90;;;;;;4153614;28;20037;-77
2022/10/08 06:32:45;;;;;;;9.35;3.58;;;13.20;99.90;;;;;;4148885;28;20045;-77
2022/10/08 06:34:46;;;;;;;11.98;4.70;;;13.20;99.90;;;;;;4147028;28;20068;-78
2022/10/08 06:36:46;;;;;;;9.38;4.72;;;13.10;99.90;;;;;;4149899;28;20091;-76
2022/10/08 06:38:52;;;;;;;7.80;4.32;;;13.10;99.90;;;;;;4150091;28;20110;-76
2022/10/08 06:40:55;;;;;;;9.80;4.90;;;13.10;99.90;;;;;;4148864;28;20037;-77
2022/10/08 06:42:56;;;;;;;13.02;5.50;;;13.10;99.90;;;;;;4168515;28;20036;-77
2022/10/08 06:44:56;;;;;;;10.85;5.85;;;13.10;99.90;;;;;;4151432;28;20036;-76
2022/10/08 06:46:57;;;;;;;10.85;5.93;;;13.20;99.90;;;;;;4143484;28;20042;-76
2022/10/08 06:48:59;;;;;;;15.30;7.43;;;13.20;99.90;;;;;;4153584;28;20038;-77
2022/10/08 06:51:02;;;;;;;15.10;7.45;;;13.20;99.90;;;;;;4158439;28;20399;-77
2022/10/08 06:53:05;;;;;;;15.18;6.78;;;13.20;99.90;;;;;;4153583;28;20049;-77
2022/10/08 06:55:06;;;;;;;12.73;7.55;;;13.20;99.90;;;;;;4151027;28;20947;-76
2022/10/08 06:57:07;;;;;;;16.85;8.30;;;13.20;99.90;;;;;;4155195;28;20305;-78
2022/10/08 06:59:07;;;;;;;10.90;7.00;;;13.20;99.90;;;;;;4153385;28;20077;-78
2022/10/08 07:01:14;;;;;;;13.07;7.68;;;13.30;99.90;;;;;;4156642;28;20033;-78
2022/10/08 07:03:15;;;;;;;14.02;8.02;;;13.20;99.90;;;;;;4158740;28;20120;-79
2022/10/08 07:05:15;;;;;;;13.98;8.13;;;13.30;99.90;;;;;;4151739;28;20034;-79
2022/10/08 07:07:16;;;;;;;16.58;8.68;;;13.30;99.90;;;;;;4156167;28;20546;-78
2022/10/08 07:09:16;;;;;;;12.93;7.88;;;13.30;99.90;;;;;;4150485;28;20034;-78
2022/10/08 07:11:18;;;;;;;11.55;7.70;;;13.30;99.90;;;;;;4160276;28;20030;-78
2022/10/08 07:13:19;;;;;;;11.73;7.75;;;13.40;99.90;;;;;;4154387;28;20358;-76
2022/10/08 07:15:19;;;;;;;14.10;8.30;;;13.40;99.90;;;;;;4155673;28;20106;-79
2022/10/08 07:17:21;;;;;;;13.45;7.85;;;13.40;99.90;;;;;;4162850;28;20029;-77
2022/10/08 07:19:22;;;;;;;16.23;8.85;;;13.50;99.90;;;;;;4169131;28;20476;-77
2022/10/08 07:21:24;;;;;;;14.20;8.57;;;13.50;99.90;;;;;;4149005;28;20033;-75
2022/10/08 07:23:25;;;;;;;15.68;10.90;;;13.60;99.90;;;;;;4168077;28;20545;-78
2022/10/08 07:25:25;;;;;;;23.00;11.40;;;13.60;99.90;;;;;;4163399;28;20030;-78
2022/10/08 07:27:26;;;;;;;19.23;11.25;;;13.60;99.90;;;;;;4159005;28;20049;-77
2022/10/08 07:29:27;;;;;;;21.00;12.45;;;13.60;99.90;;;;;;4156861;28;20053;-80
2022/10/08 07:31:33;;;;;;;19.27;11.95;;;13.60;99.90;;;;;;4155948;28;20037;-80
2022/10/08 07:33:33;;;;;;;19.35;11.57;;;13.70;99.90;;;;;;4163389;28;20400;-80
2022/10/08 07:35:34;;;;;;;21.90;12.02;;;13.70;99.90;;;;;;4164873;28;20041;-79
2022/10/08 07:37:35;;;;;;;17.95;11.40;;;13.80;99.90;;;;;;4166927;28;20389;-80
2022/10/08 07:39:35;;;;;;;18.02;11.25;;;13.80;99.90;;;;;;4169743;28;20361;-80
2022/10/08 07:41:36;;;;;;;13.82;9.73;;;13.90;99.90;;;;;;4161614;28;20030;-78
2022/10/08 07:43:40;;;;;;;16.90;10.02;;;14.00;99.90;;;;;;4150876;28;20182;-80
2022/10/08 07:45:44;;;;;;;14.77;9.70;;;14.20;99.90;;;;;;4153241;28;20930;-80
2022/10/08 07:47:45;;;;;;;16.42;10.50;;;14.40;99.90;;;;;;4150165;28;20037;-80
2022/10/08 07:49:46;;;;;;;18.55;10.55;;;14.50;99.90;;;;;;4148344;28;20409;-81
2022/10/08 07:51:47;;;;;;;17.77;11.32;;;14.60;99.90;;;;;;4147460;28;20034;-80
2022/10/08 07:53:48;;;;;;;16.23;9.68;;;14.70;99.90;;;;;;4159036;28;20495;-80
2022/10/08 07:55:48;;;;;;;17.60;9.50;;;14.80;99.90;;;;;;4138180;28;20038;-80
2022/10/08 07:57:49;;;;;;;20.35;11.80;;;14.80;99.90;;;;;;4149656;28;20048;-81
2022/10/08 07:59:50;;;;;;;20.33;12.13;;;14.90;99.90;;;;;;4146240;28;20515;-78
2022/10/08 08:01:50;;;;;;;18.17;10.70;;;14.90;99.90;;;;;;4149300;28;20056;-78
2022/10/08 08:03:56;;;;;;;15.95;10.82;;;15.00;99.90;;;;;;4159642;28;20123;-80
2022/10/08 08:06:23;;;;;;;18.00;12.25;;;15.10;99.90;;;;;;4152211;28;20025;-79
2022/10/08 08:08:23;;;;;;;17.63;10.80;;;15.20;99.90;;;;;;4152459;28;20037;-73
2022/10/08 08:10:24;;;;;;;13.55;9.68;;;15.30;99.90;;;;;;4148017;28;20046;-78
2022/10/08 08:12:25;;;;;;;15.43;9.32;;;15.40;99.90;;;;;;4147885;28;20084;-79
2022/10/08 08:14:26;;;;;;;21.13;10.88;;;15.50;99.90;;;;;;4155023;28;20041;-78
2022/10/08 08:16:28;;;;;;;14.30;9.25;;;15.60;99.90;;;;;;4164001;28;20040;-78
2022/10/08 08:18:30;;;;;;;13.57;9.23;;;15.70;99.90;;;;;;4165095;28;20032;-78
2022/10/08 08:20:31;;;;;;;15.82;9.80;;;15.80;99.90;;;;;;4162363;28;20280;-78
2022/10/08 08:22:31;;;;;;;15.70;9.98;;;15.80;99.90;;;;;;4165612;28;20036;-79
2022/10/08 08:24:32;;;;;;;12.65;8.70;;;15.90;99.90;;;;;;4166432;28;20412;-79
2022/10/08 08:26:35;;;;;;;15.32;8.85;;;15.90;99.90;;;;;;4165206;28;20039;-77
2022/10/08 08:28:36;;;;;;;14.57;8.88;;;15.90;99.90;;;;;;4162071;28;20112;-78
2022/10/08 08:30:37;;;;;;;15.57;8.85;;;16.00;99.90;;;;;;4162584;28;20080;-77
2022/10/08 08:32:37;;;;;;;17.25;9.55;;;16.10;99.90;;;;;;4164563;28;20504;-76
2022/10/08 08:34:38;;;;;;;15.40;8.02;;;16.10;99.90;;;;;;4168222;28;20026;-77
2022/10/08 08:36:42;;;;;;;13.65;7.43;;;16.10;99.90;;;;;;4169212;28;20446;-77
2022/10/08 08:38:43;;;;;;;13.60;8.40;;;16.20;99.90;;;;;;4165636;28;21067;-76
2022/10/08 08:40:43;;;;;;;12.40;7.40;;;16.30;99.90;;;;;;4164217;28;20045;-78
2022/10/08 08:42:53;;;;;;;12.15;7.30;;;16.40;99.90;;;;;;4165621;28;20052;-77
2022/10/08 08:45:00;;;;;;;17.52;7.85;;;16.50;99.90;;;;;;4163056;28;20045;-77
2022/10/08 08:47:12;;;;;;;10.43;7.18;;;16.60;99.90;;;;;;4167440;28;20041;-76
2022/10/08 08:49:24;;;;;;;12.23;7.03;;;16.70;99.90;;;;;;4167900;28;20114;-77
2022/10/08 08:51:24;;;;;;;9.20;6.18;;;16.70;99.90;;;;;;4165600;28;20511;-77
2022/10/08 08:53:26;;;;;;;12.02;6.80;;;16.80;99.90;;;;;;4166102;28;20030;-78
2022/10/08 08:55:33;;;;;;;12.98;6.50;;;16.80;99.90;;;;;;4164307;28;20090;-78
2022/10/08 08:57:43;;;;;;;11.75;6.22;;;16.80;99.90;;;;;;4152292;28;20041;-77
2022/10/08 08:59:46;;;;;;;14.45;7.95;;;16.90;99.90;;;;;;4155089;28;20052;-77
2022/10/08 09:01:48;;;;;;;14.95;7.30;;;16.90;99.90;;;;;;4162133;28;20484;-78
2022/10/08 09:03:53;;;;;;;14.43;6.78;;;16.90;99.90;;;;;;4164078;28;20036;-77
2022/10/08 09:05:57;;;;;;;9.43;5.72;;;17.00;99.90;;;;;;4164562;28;20033;-72
2022/10/08 09:08:18;;;;;;;12.02;5.97;;;17.10;99.90;;;;;;4163637;28;20398;-77
2022/10/08 09:10:38;;;;;;;13.02;7.10;;;17.20;99.90;;;;;;4162128;28;20041;-78
2022/10/08 09:12:44;;;;;;;12.07;6.60;;;17.20;99.90;;;;;;4162733;28;20487;-75
2022/10/08 09:14:50;;;;;;;11.90;5.78;;;17.30;99.90;;;;;;4145679;28;20056;-76
2022/10/08 09:16:53;;;;;;;10.45;5.78;;;17.30;99.90;;;;;;4165290;28;20389;-78
2022/10/08 09:18:53;;;;;;;11.40;6.28;;;17.30;99.90;;;;;;4166042;28;20427;-77
2022/10/08 09:20:54;;;;;;;12.55;6.30;;;17.30;99.90;;;;;;4161212;28;20046;-75
2022/10/08 09:22:55;;;;;;;9.27;5.70;;;17.30;99.90;;;;;;4162171;28;20156;-74
2022/10/08 09:24:59;;;;;;;12.35;5.38;;;17.40;99.90;;;;;;4165259;28;20069;-76
2022/10/08 09:27:00;;;;;;;6.85;4.60;;;17.40;99.90;;;;;;4162885;28;20504;-77
2022/10/08 09:29:03;;;;;;;8.95;4.78;;;17.50;99.90;;;;;;4162052;28;20056;-78
2022/10/08 09:31:20;;;;;;;10.00;4.82;;;17.50;99.90;;;;;;4163299;28;20155;-74
2022/10/08 09:33:30;;;;;;;14.32;4.80;;;17.60;99.90;;;;;;4162575;28;20036;-78
2022/10/08 09:35:33;;;;;;;12.40;4.60;;;17.70;99.90;;;;;;4161108;28;20042;-80
2022/10/08 09:37:34;;;;;;;;;;;17.50;99.90;;;;;;4158114;28;20042;-77
2022/10/08 09:39:39;;;;;;;6.70;3.50;;;17.40;99.90;;;;;;4157183;28;19913;-79
2022/10/08 09:41:39;;;;;;;8.15;4.00;;;17.40;99.90;;;;;;4154285;28;20033;-74
2022/10/08 09:43:40;;;;;;;7.63;3.60;;;17.40;99.90;;;;;;4152607;28;20051;-76
2022/10/08 09:45:44;;;;;;;10.07;4.80;;;17.40;99.90;;;;;;4159546;28;20022;-77
2022/10/08 09:48:01;;;;;;;12.50;4.28;;;17.40;99.90;;;;;;4155327;28;20033;-81
2022/10/08 09:50:03;;;;;;;6.97;3.10;;;17.30;99.90;;;;;;4163010;28;20025;-80
2022/10/08 09:52:39;;;;;;;8.05;2.80;;;17.40;99.90;;;;;;4161592;28;20037;-78
2022/10/08 09:54:47;;;;;;;10.00;2.95;;;17.20;99.90;;;;;;4149303;28;20426;-78
2022/10/08 09:56:54;;;;;;;6.57;2.90;;;17.00;99.90;;;;;;4161053;28;20029;-76
2022/10/08 09:59:01;;;;;;;6.43;2.55;;;17.00;99.90;;;;;;4152643;28;20057;-77
2022/10/08 10:01:15;;;;;;;4.68;1.83;;;16.90;99.90;;;;;;4164118;28;20059;-77
2022/10/08 10:03:18;;;;;;;8.48;2.42;;;16.80;99.90;;;;;;4161801;28;20037;-74
2022/10/08 10:05:29;;;;;;;9.23;2.40;;;16.80;99.90;;;;;;4162097;28;20061;-75
2022/10/08 10:07:42;;;;;;;6.80;1.92;;;16.80;99.90;;;;;;4164152;28;20036;-76
2022/10/08 10:09:47;;;;;;;4.85;1.95;;;16.90;99.90;;;;;;4161794;28;20064;-76
2022/10/08 10:12:08;;;;;;;4.85;1.58;;;16.90;99.90;;;;;;4161702;28;20041;-77
2022/10/08 10:14:26;;;;;;;7.53;2.25;;;16.70;99.90;;;;;;4143814;28;20088;-74
2022/10/08 10:16:34;;;;;;;4.60;1.90;;;16.70;99.90;;;;;;4149986;28;20613;-74
2022/10/08 10:18:55;;;;;;;6.72;1.73;;;16.80;99.90;;;;;;4151798;28;20034;-74
2022/10/08 10:21:00;;;;;;;5.00;1.63;;;16.90;99.90;;;;;;4144207;28;20078;-74
2022/10/08 10:23:13;;;;;;;5.20;1.60;;;17.00;99.90;;;;;;4147799;28;20125;-76
2022/10/08 10:25:42;;;;;;;4.32;1.60;;;17.00;99.90;;;;;;4143144;28;20099;-75
2022/10/08 10:27:52;;;;;;;8.80;1.67;;;17.00;99.90;;;;;;4144130;28;20036;-77
2022/10/08 10:30:20;;;;;;;5.53;1.73;;;17.10;99.90;;;;;;4146039;28;20089;-78
2022/10/08 10:32:31;;;;;;;5.68;1.95;;;17.10;99.90;;;;;;4156059;28;20033;-78
2022/10/08 10:34:37;;;;;;;5.90;1.92;;;17.10;99.90;;;;;;4144870;28;20450;-74
2022/10/08 10:36:44;;;;;;;4.60;1.20;;;17.00;99.90;;;;;;4145028;28;20049;-77
2022/10/08 10:38:52;;;;;;;4.10;1.42;;;16.90;99.90;;;;;;4144856;28;20061;-76
2022/10/08 10:41:17;;;;;;;4.43;1.80;;;17.00;99.90;;;;;;4143629;28;20072;-76
2022/10/08 10:43:33;;;;;;;6.35;2.00;;;17.00;99.90;;;;;;4147523;28;20058;-77
2022/10/08 10:45:34;;;;;;;8.75;1.83;;;16.90;99.90;;;;;;4142441;28;20552;-77